createdAt,value
2023-03-18T00:00:11.617Z,5.53
2023-03-18T00:02:40.270Z,5.72
2023-03-18T00:05:08.424Z,6.38
2023-03-18T00:07:36.222Z,6.57
2023-03-18T00:10:04.069Z,6.53
2023-03-18T00:12:31.259Z,5.47
2023-03-18T00:14:57.749Z,5.82
2023-03-18T00:17:24.202Z,5.93
2023-03-18T00:19:50.957Z,6.10
2023-03-18T00:22:17.580Z,5.87
2023-03-18T00:24:44.076Z,5.00
2023-03-18T00:27:10.540Z,5.13
2023-03-18T00:29:37.726Z,5.50
2023-03-18T00:32:04.404Z,6.00
2023-03-18T00:34:30.893Z,6.07
2023-03-18T00:36:57.624Z,5.43
2023-03-18T00:39:29.755Z,5.85
2023-03-18T00:41:57.149Z,5.85
2023-03-18T00:44:26.243Z,6.30
2023-03-18T00:46:52.900Z,5.60
2023-03-18T00:49:19.878Z,6.50
2023-03-18T00:51:46.730Z,6.07
2023-03-18T00:54:17.961Z,5.70
2023-03-18T00:56:44.594Z,5.32
2023-03-18T00:59:11.890Z,5.97
2023-03-18T01:01:39.116Z,6.03
2023-03-18T01:04:06.820Z,6.18
2023-03-18T01:06:35.902Z,5.85
2023-03-18T01:09:05.005Z,5.90
2023-03-18T01:11:33.318Z,5.63
2023-03-18T01:14:00.584Z,5.07
2023-03-18T01:16:27.498Z,5.32
2023-03-18T01:18:54.054Z,5.57
2023-03-18T01:21:21.057Z,5.28
2023-03-18T01:23:47.504Z,5.33
2023-03-18T01:26:14.608Z,5.85
2023-03-18T01:28:42.248Z,5.95
2023-03-18T01:31:09.186Z,6.38
2023-03-18T01:33:36.649Z,6.65
2023-03-18T01:36:05.008Z,6.87
2023-03-18T01:38:32.170Z,6.03
2023-03-18T01:41:00.446Z,5.65
2023-03-18T01:43:37.046Z,6.15
2023-03-18T01:46:44.842Z,5.50
2023-03-18T01:49:16.308Z,5.80
2023-03-18T01:51:48.160Z,6.85
2023-03-18T01:54:16.534Z,6.65
2023-03-18T01:56:45.874Z,6.38
2023-03-18T01:59:13.964Z,5.95
2023-03-18T02:01:48.214Z,6.67
2023-03-18T02:04:18.347Z,6.25
2023-03-18T02:06:45.214Z,6.50
2023-03-18T02:09:13.057Z,6.82
2023-03-18T02:11:43.796Z,7.43
2023-03-18T02:14:14.866Z,7.47
2023-03-18T02:16:51.114Z,7.25
2023-03-18T02:19:39.455Z,7.05
2023-03-18T02:22:08.676Z,7.78
2023-03-18T02:24:35.066Z,7.88
2023-03-18T02:27:12.435Z,8.87
2023-03-18T02:29:42.225Z,7.15
2023-03-18T02:32:10.055Z,7.00
2023-03-18T02:34:38.659Z,6.90
2023-03-18T02:37:07.860Z,7.25
2023-03-18T02:39:35.715Z,7.17
2023-03-18T02:42:02.547Z,7.50
2023-03-18T02:44:29.225Z,7.47
2023-03-18T02:47:02.900Z,7.28
2023-03-18T02:49:31.054Z,7.53
2023-03-18T02:51:57.579Z,7.50
2023-03-18T02:54:26.971Z,7.07
2023-03-18T02:56:54.025Z,6.75
2023-03-18T02:59:21.793Z,7.35
2023-03-18T03:01:50.738Z,8.05
2023-03-18T03:04:17.761Z,7.40
2023-03-18T03:06:45.076Z,8.07
2023-03-18T03:09:15.305Z,7.20
2023-03-18T03:11:43.374Z,7.10
2023-03-18T03:14:11.489Z,7.63
2023-03-18T03:16:37.995Z,8.20
2023-03-18T03:19:06.030Z,7.53
2023-03-18T03:21:33.570Z,8.25
2023-03-18T03:24:00.193Z,8.85
2023-03-18T03:26:27.114Z,8.65
2023-03-18T03:28:53.608Z,9.07
2023-03-18T03:31:20.116Z,9.20
2023-03-18T03:33:46.603Z,10.35
2023-03-18T03:36:16.403Z,10.25
2023-03-18T03:38:43.539Z,10.27
2023-03-18T03:41:12.231Z,10.30
2023-03-18T03:43:40.404Z,10.32
2023-03-18T03:46:08.226Z,10.18
2023-03-18T03:48:34.973Z,9.63
2023-03-18T03:51:02.213Z,10.32
2023-03-18T03:53:28.983Z,9.87
2023-03-18T03:55:59.000Z,9.73
2023-03-18T03:58:26.375Z,9.88
2023-03-18T04:00:52.880Z,10.55
2023-03-18T04:03:19.695Z,9.45
2023-03-18T04:05:46.331Z,9.10
2023-03-18T04:08:12.854Z,9.82
2023-03-18T04:10:39.992Z,10.07
2023-03-18T04:13:06.893Z,9.98
2023-03-18T04:15:33.676Z,9.52
2023-03-18T04:18:04.944Z,8.83
2023-03-18T04:20:31.927Z,9.93
2023-03-18T04:22:58.612Z,10.15
2023-03-18T04:25:25.308Z,9.98
2023-03-18T04:27:52.770Z,9.63
2023-03-18T04:30:20.677Z,9.13
2023-03-18T04:32:47.148Z,9.30
2023-03-18T04:35:14.226Z,9.70
2023-03-18T04:37:40.641Z,9.50
2023-03-18T04:40:07.610Z,10.07
2023-03-18T04:42:34.104Z,9.93
2023-03-18T04:45:01.807Z,10.27
2023-03-18T04:47:28.321Z,9.75
2023-03-18T04:49:54.989Z,10.10
2023-03-18T04:52:21.583Z,10.45
2023-03-18T04:54:48.086Z,10.00
2023-03-18T04:57:14.676Z,9.90
2023-03-18T04:59:41.728Z,9.57
2023-03-18T05:02:08.986Z,9.00
2023-03-18T05:04:36.398Z,10.10
2023-03-18T05:07:02.905Z,9.57
2023-03-18T05:09:29.421Z,9.30
2023-03-18T05:11:55.919Z,9.60
2023-03-18T05:14:22.510Z,10.02
2023-03-18T05:16:49.367Z,9.88
2023-03-18T05:19:18.280Z,9.80
2023-03-18T05:21:45.098Z,9.90
2023-03-18T05:24:11.535Z,9.30
2023-03-18T05:26:38.824Z,9.52
2023-03-18T05:29:05.399Z,9.05
2023-03-18T05:31:31.965Z,9.57
2023-03-18T05:33:58.570Z,9.38
2023-03-18T05:36:25.261Z,9.68
2023-03-18T05:38:51.729Z,9.52
2023-03-18T05:41:18.295Z,9.50
2023-03-18T05:43:44.765Z,9.83
2023-03-18T05:46:11.694Z,10.25
2023-03-18T05:48:38.314Z,8.77
2023-03-18T05:51:05.965Z,8.60
2023-03-18T05:53:32.718Z,9.48
2023-03-18T05:55:59.939Z,9.33
2023-03-18T05:58:31.158Z,9.43
2023-03-18T06:00:58.914Z,9.60
2023-03-18T06:03:25.766Z,9.02
2023-03-18T06:05:52.935Z,9.38
2023-03-18T06:08:19.508Z,8.93
2023-03-18T06:10:45.992Z,8.57
2023-03-18T06:13:12.532Z,8.85
2023-03-18T06:15:39.112Z,8.77
2023-03-18T06:18:05.680Z,9.15
2023-03-18T06:20:32.230Z,8.87
2023-03-18T06:22:58.713Z,8.48
2023-03-18T06:25:26.372Z,8.90
2023-03-18T06:27:53.106Z,8.20
2023-03-18T06:30:19.720Z,9.35
2023-03-18T06:32:46.335Z,9.30
2023-03-18T06:35:15.504Z,8.70
2023-03-18T06:37:42.721Z,9.02
2023-03-18T06:40:12.278Z,9.20
2023-03-18T06:42:39.334Z,9.52
2023-03-18T06:45:07.527Z,8.63
2023-03-18T06:47:34.409Z,9.32
2023-03-18T06:50:01.613Z,8.35
2023-03-18T06:52:28.294Z,9.15
2023-03-18T06:54:54.870Z,8.63
2023-03-18T06:57:21.656Z,9.40
2023-03-18T06:59:48.207Z,9.02
2023-03-18T07:02:15.495Z,9.18
2023-03-18T07:04:42.366Z,9.15
2023-03-18T07:07:09.068Z,9.40
2023-03-18T07:09:36.391Z,10.13
2023-03-18T07:12:03.310Z,9.70
2023-03-18T07:14:30.699Z,8.88
2023-03-18T07:16:57.279Z,9.07
2023-03-18T07:19:23.955Z,9.27
2023-03-18T07:21:50.982Z,9.43
2023-03-18T07:24:17.568Z,9.70
2023-03-18T07:26:44.016Z,9.85
2023-03-18T07:29:10.510Z,9.95
2023-03-18T07:31:37.147Z,10.40
2023-03-18T07:34:04.829Z,8.93
2023-03-18T07:36:31.886Z,10.38
2023-03-18T07:38:59.897Z,11.07
2023-03-18T07:41:26.685Z,10.15
2023-03-18T07:43:53.649Z,10.63
2023-03-18T07:46:20.272Z,10.27
2023-03-18T07:48:46.829Z,10.07
2023-03-18T07:51:15.119Z,10.20
2023-03-18T07:53:42.384Z,10.95
2023-03-18T07:56:10.013Z,11.30
2023-03-18T07:58:37.592Z,10.80
2023-03-18T08:01:04.429Z,11.40
2023-03-18T08:03:31.019Z,11.70
2023-03-18T08:05:57.848Z,12.05
2023-03-18T08:08:24.941Z,12.38
2023-03-18T08:10:52.344Z,11.83
2023-03-18T08:13:19.020Z,11.93
2023-03-18T08:15:45.506Z,13.15
2023-03-18T08:18:11.963Z,11.77
2023-03-18T08:20:38.468Z,12.35
2023-03-18T08:23:05.165Z,11.50
2023-03-18T08:25:32.727Z,10.40
2023-03-18T08:27:59.656Z,10.30
2023-03-18T08:30:28.694Z,9.55
2023-03-18T08:32:56.026Z,10.55
2023-03-18T08:35:23.460Z,9.07
2023-03-18T08:37:51.591Z,9.63
2023-03-18T08:40:18.505Z,9.80
2023-03-18T08:42:45.279Z,9.13
2023-03-18T08:45:12.386Z,9.73
2023-03-18T08:47:39.500Z,8.73
2023-03-18T08:50:06.536Z,8.70
2023-03-18T08:52:33.030Z,8.25
2023-03-18T08:54:59.792Z,8.55
2023-03-18T08:57:27.952Z,9.05
2023-03-18T08:59:54.509Z,10.00
2023-03-18T09:02:21.634Z,10.07
2023-03-18T09:04:48.317Z,10.68
2023-03-18T09:07:16.386Z,10.88
2023-03-18T09:09:44.644Z,11.23
2023-03-18T09:12:14.840Z,10.00
2023-03-18T09:14:43.536Z,9.50
2023-03-18T09:17:10.088Z,8.95
2023-03-18T09:19:37.469Z,8.90
2023-03-18T09:22:04.435Z,8.85
2023-03-18T09:24:31.647Z,10.10
2023-03-18T09:26:59.839Z,9.30
2023-03-18T09:29:27.681Z,8.73
2023-03-18T09:31:54.291Z,8.88
2023-03-18T09:34:20.785Z,8.80
2023-03-18T09:36:51.096Z,9.23
2023-03-18T09:39:21.257Z,9.10
2023-03-18T09:42:00.671Z,8.98
2023-03-18T09:44:33.700Z,9.88
2023-03-18T09:47:21.319Z,8.93
2023-03-18T09:50:09.323Z,8.90
2023-03-18T09:52:43.839Z,8.23
2023-03-18T09:55:41.129Z,7.95
2023-03-18T09:58:35.854Z,7.90
2023-03-18T10:01:06.488Z,8.40
2023-03-18T10:03:54.391Z,7.07
2023-03-18T10:06:23.768Z,7.10
2023-03-18T10:08:52.944Z,6.32
2023-03-18T10:11:19.503Z,6.13
2023-03-18T10:13:54.959Z,6.85
2023-03-18T10:16:27.091Z,7.03
2023-03-18T10:18:54.944Z,6.80
2023-03-18T10:21:36.424Z,7.05
2023-03-18T10:24:27.540Z,7.25
2023-03-18T10:27:15.268Z,6.68
2023-03-18T10:30:04.194Z,6.57
2023-03-18T10:32:50.591Z,6.88
2023-03-18T10:35:36.775Z,6.28
2023-03-18T10:38:10.807Z,5.63
2023-03-18T10:40:39.751Z,5.35
2023-03-18T10:43:16.835Z,5.83
2023-03-18T10:45:45.237Z,4.18
2023-03-18T10:48:35.542Z,4.15
2023-03-18T10:51:37.106Z,3.75
2023-03-18T10:54:15.793Z,4.82
2023-03-18T10:56:43.051Z,5.67
2023-03-18T10:59:16.303Z,4.90
2023-03-18T11:01:54.191Z,5.38
2023-03-18T11:04:23.762Z,4.53
2023-03-18T11:07:01.634Z,5.55
2023-03-18T11:09:36.648Z,4.33
2023-03-18T11:12:14.155Z,4.45
2023-03-18T11:14:42.278Z,4.35
2023-03-18T11:17:31.207Z,4.72
2023-03-18T11:20:11.069Z,4.55
2023-03-18T11:22:44.474Z,4.40
2023-03-18T11:25:11.491Z,5.03
2023-03-18T11:27:45.871Z,4.30
2023-03-18T11:30:33.288Z,4.43
2023-03-18T11:33:14.743Z,4.45
2023-03-18T11:35:47.195Z,4.47
2023-03-18T11:38:28.857Z,4.15
2023-03-18T11:41:22.326Z,3.92
2023-03-18T11:44:19.232Z,4.15
2023-03-18T11:46:59.059Z,4.45
2023-03-18T11:49:28.648Z,4.20
2023-03-18T11:52:09.559Z,4.28
2023-03-18T11:54:42.198Z,4.18
2023-03-18T11:57:45.532Z,4.90
2023-03-18T12:00:33.523Z,4.10
2023-03-18T12:03:10.469Z,4.23
2023-03-18T12:05:48.573Z,5.05
2023-03-18T12:08:35.051Z,3.95
2023-03-18T12:11:20.036Z,3.30
2023-03-18T12:14:02.232Z,3.17
2023-03-18T12:16:44.913Z,4.03
2023-03-18T12:19:29.373Z,3.85
2023-03-18T12:22:26.543Z,3.65
2023-03-18T12:24:58.557Z,3.58
2023-03-18T12:27:48.385Z,3.72
2023-03-18T12:30:34.055Z,2.90
2023-03-18T12:33:21.369Z,3.30
2023-03-18T12:36:06.933Z,3.10
2023-03-18T12:38:55.039Z,3.35
2023-03-18T12:41:29.441Z,4.50
2023-03-18T12:44:06.053Z,3.53
2023-03-18T12:46:40.334Z,3.58
2023-03-18T12:49:31.175Z,3.40
2023-03-18T12:52:04.314Z,3.10
2023-03-18T12:54:45.012Z,2.97
2023-03-18T12:57:22.093Z,3.07
2023-03-18T12:59:57.923Z,2.30
2023-03-18T13:02:38.261Z,2.60
2023-03-18T13:05:18.474Z,2.83
2023-03-18T13:07:51.525Z,2.72
2023-03-18T13:10:25.290Z,2.60
2023-03-18T13:12:55.547Z,2.58
2023-03-18T13:15:35.838Z,2.45
2023-03-18T13:18:17.049Z,2.75
2023-03-18T13:20:45.761Z,2.92
2023-03-18T13:23:28.845Z,2.60
2023-03-18T13:26:10.608Z,3.33
2023-03-18T13:29:01.034Z,3.33
2023-03-18T13:31:36.653Z,3.47
2023-03-18T13:34:36.899Z,3.35
2023-03-18T13:37:26.857Z,3.73
2023-03-18T13:40:27.501Z,3.85
2023-03-18T13:42:59.210Z,3.78
2023-03-18T13:45:31.334Z,3.63
2023-03-18T13:48:33.985Z,4.30
2023-03-18T13:51:20.692Z,3.50
2023-03-18T13:53:50.587Z,3.30
2023-03-18T13:56:36.194Z,3.05
2023-03-18T13:59:07.376Z,3.35
2023-03-18T14:01:36.452Z,3.40
2023-03-18T14:04:32.339Z,3.33
2023-03-18T14:07:19.347Z,3.20
2023-03-18T14:10:18.289Z,3.55
2023-03-18T14:12:47.470Z,3.10
2023-03-18T14:15:14.780Z,2.88
2023-03-18T14:17:58.648Z,2.60
2023-03-18T14:20:38.638Z,2.58
2023-03-18T14:23:39.129Z,2.58
2023-03-18T14:26:26.998Z,2.45
2023-03-18T14:28:55.446Z,2.00
2023-03-18T14:31:34.747Z,1.90
2023-03-18T14:34:05.070Z,2.00
2023-03-18T14:36:43.858Z,1.48
2023-03-18T14:39:17.900Z,1.83
2023-03-18T14:41:48.789Z,1.67
2023-03-18T14:44:36.048Z,1.57
2023-03-18T14:47:31.955Z,1.20
2023-03-18T14:50:13.010Z,1.33
2023-03-18T14:52:42.852Z,1.00
2023-03-18T14:55:18.378Z,1.15
2023-03-18T14:57:46.385Z,0.90
2023-03-18T15:00:17.469Z,1.30
2023-03-18T15:02:45.121Z,1.30
2023-03-18T15:05:17.870Z,1.73
2023-03-18T15:07:50.072Z,2.50
2023-03-18T15:10:22.433Z,2.70
2023-03-18T15:13:15.406Z,2.45
2023-03-18T15:15:42.738Z,2.58
2023-03-18T15:18:18.559Z,2.40
2023-03-18T15:20:49.401Z,2.20
2023-03-18T15:23:18.558Z,2.03
2023-03-18T15:25:45.147Z,2.03
2023-03-18T15:28:19.573Z,2.35
2023-03-18T15:30:57.813Z,2.85
2023-03-18T15:33:30.284Z,1.98
2023-03-18T15:36:03.473Z,2.10
2023-03-18T15:38:31.853Z,2.13
2023-03-18T15:41:07.319Z,1.95
2023-03-18T15:43:40.169Z,1.85
2023-03-18T15:46:19.240Z,1.75
2023-03-18T15:48:54.476Z,1.60
2023-03-18T15:51:38.608Z,1.70
2023-03-18T15:54:15.363Z,1.70
2023-03-18T15:56:49.996Z,1.65
2023-03-18T15:59:26.211Z,1.17
2023-03-18T16:01:57.108Z,1.30
2023-03-18T16:04:24.893Z,1.25
2023-03-18T16:06:54.941Z,1.90
2023-03-18T16:09:23.951Z,1.15
2023-03-18T16:12:08.607Z,1.52
2023-03-18T16:14:40.897Z,1.67
2023-03-18T16:17:07.472Z,1.80
2023-03-18T16:19:34.007Z,1.50
2023-03-18T16:22:00.510Z,1.60
2023-03-18T16:24:27.365Z,1.73
2023-03-18T16:26:55.106Z,1.57
2023-03-18T16:29:29.772Z,1.70
2023-03-18T16:31:57.021Z,1.80
2023-03-18T16:34:23.943Z,1.70
2023-03-18T16:36:52.004Z,1.45
2023-03-18T16:39:34.010Z,1.17
2023-03-18T16:42:05.104Z,1.10
2023-03-18T16:44:34.738Z,1.60
2023-03-18T16:47:02.372Z,1.40
2023-03-18T16:49:34.375Z,1.70
2023-03-18T16:52:03.714Z,1.30
2023-03-18T16:54:33.308Z,1.58
2023-03-18T16:57:03.057Z,1.40
2023-03-18T16:59:33.616Z,1.50
2023-03-18T17:02:00.708Z,46.58
2023-03-18T17:04:32.983Z,2.63
2023-03-18T17:07:01.811Z,2.20
2023-03-18T17:09:28.394Z,1.92
2023-03-18T17:12:06.207Z,3.08
2023-03-18T17:14:46.813Z,2.03
2023-03-18T17:17:19.692Z,1.60
2023-03-18T17:19:46.422Z,1.77
2023-03-18T17:22:24.365Z,1.60
2023-03-18T17:24:51.086Z,1.85
2023-03-18T17:27:30.032Z,2.38
2023-03-18T17:29:56.581Z,2.30
2023-03-18T17:32:23.217Z,3.00
2023-03-18T17:34:51.901Z,3.00
2023-03-18T17:37:20.229Z,3.05
2023-03-18T17:39:47.451Z,2.90
2023-03-18T17:42:26.113Z,3.13
2023-03-18T17:44:53.099Z,3.28
2023-03-18T17:47:19.666Z,3.03
2023-03-18T17:49:46.156Z,2.88
2023-03-18T17:52:17.700Z,2.67
2023-03-18T17:54:44.662Z,2.03
2023-03-18T17:57:15.453Z,2.55
2023-03-18T17:59:42.209Z,2.25
2023-03-18T18:02:15.542Z,2.50
2023-03-18T18:04:43.236Z,2.75
2023-03-18T18:07:18.037Z,3.47
2023-03-18T18:09:45.135Z,4.45
2023-03-18T18:12:21.409Z,4.65
2023-03-18T18:14:47.928Z,5.03
2023-03-18T18:17:15.696Z,8.55
2023-03-18T18:19:42.936Z,9.13
2023-03-18T18:22:21.881Z,8.40
2023-03-18T18:24:48.754Z,8.52
2023-03-18T18:27:15.731Z,8.73
2023-03-18T18:29:46.019Z,9.55
2023-03-18T18:32:12.862Z,10.13
2023-03-18T18:34:39.324Z,9.38
2023-03-18T18:37:05.889Z,8.90
2023-03-18T18:39:32.390Z,8.63
2023-03-18T18:41:59.161Z,7.72
2023-03-18T18:44:26.052Z,7.60
2023-03-18T18:46:52.545Z,7.10
2023-03-18T18:49:22.951Z,6.88
2023-03-18T18:51:54.790Z,6.85
2023-03-18T18:54:24.511Z,7.15
2023-03-18T18:56:51.322Z,6.53
2023-03-18T18:59:22.878Z,10.50
2023-03-18T19:01:53.305Z,14.32
2023-03-18T19:04:21.672Z,11.38
2023-03-18T19:06:51.696Z,14.30
2023-03-18T19:09:20.924Z,16.40
2023-03-18T19:11:48.536Z,19.48
2023-03-18T19:14:19.536Z,13.85
2023-03-18T19:16:47.112Z,12.60
2023-03-18T19:19:17.796Z,13.15
2023-03-18T19:21:44.833Z,11.47
2023-03-18T19:24:28.464Z,10.55
2023-03-18T19:26:57.531Z,7.47
2023-03-18T19:29:25.078Z,6.82
2023-03-18T19:31:51.747Z,6.20
2023-03-18T19:34:19.382Z,4.90
2023-03-18T19:36:52.998Z,5.07
2023-03-18T19:39:22.026Z,5.88
2023-03-18T19:41:49.130Z,6.28
2023-03-18T19:44:19.277Z,6.32
2023-03-18T19:46:47.861Z,6.53
2023-03-18T19:49:20.786Z,5.45
2023-03-18T19:51:47.448Z,2.72
2023-03-18T19:54:35.451Z,2.97
2023-03-18T19:57:27.496Z,2.70
2023-03-18T19:59:56.437Z,1.60
2023-03-18T20:02:25.724Z,1.85
2023-03-18T20:04:54.458Z,2.03
2023-03-18T20:07:23.248Z,1.60
2023-03-18T20:09:50.168Z,1.90
2023-03-18T20:12:27.930Z,1.30
2023-03-18T20:14:54.554Z,1.00
2023-03-18T20:17:24.032Z,1.00
2023-03-18T20:19:50.518Z,0.90
2023-03-18T20:22:26.993Z,0.70
2023-03-18T20:24:53.955Z,0.57
2023-03-18T20:27:21.153Z,0.60
2023-03-18T20:29:47.971Z,0.40
2023-03-18T20:32:14.479Z,0.40
2023-03-18T20:34:41.606Z,0.40
2023-03-18T20:37:16.805Z,0.20
2023-03-18T20:39:43.253Z,0.40
2023-03-18T20:42:17.060Z,0.35
2023-03-18T20:44:45.224Z,0.40
2023-03-18T20:47:13.379Z,0.30
2023-03-18T20:49:44.461Z,0.30
2023-03-18T20:52:25.907Z,0.30
2023-03-18T20:54:52.849Z,0.30
2023-03-18T20:57:19.548Z,0.30
2023-03-18T20:59:47.326Z,0.30
2023-03-18T21:02:32.724Z,0.30
2023-03-18T21:05:01.583Z,0.30
2023-03-18T21:07:28.972Z,0.50
2023-03-18T21:09:55.687Z,0.50
2023-03-18T21:12:22.783Z,0.60
2023-03-18T21:14:50.107Z,0.60
2023-03-18T21:17:21.719Z,0.70
2023-03-18T21:19:49.131Z,0.50
2023-03-18T21:22:23.316Z,0.30
2023-03-18T21:24:50.466Z,0.40
2023-03-18T21:27:26.776Z,0.20
2023-03-18T21:29:54.820Z,0.30
2023-03-18T21:32:28.531Z,0.20
2023-03-18T21:34:55.868Z,0.32
2023-03-18T21:37:24.766Z,0.38
2023-03-18T21:39:51.583Z,0.30
2023-03-18T21:42:22.810Z,0.30
2023-03-18T21:44:50.441Z,0.38
2023-03-18T21:47:19.203Z,0.30
2023-03-18T21:49:46.898Z,0.40
2023-03-18T21:52:32.228Z,0.30
2023-03-18T21:54:59.923Z,0.70
2023-03-18T21:57:26.411Z,0.40
2023-03-18T21:59:53.841Z,0.40
2023-03-18T22:02:34.258Z,0.30
2023-03-18T22:05:03.486Z,0.30
2023-03-18T22:07:32.013Z,0.40
2023-03-18T22:10:00.623Z,0.43
2023-03-18T22:12:29.894Z,0.40
2023-03-18T22:14:56.861Z,0.45
2023-03-18T22:17:31.561Z,0.40
2023-03-18T22:20:00.608Z,0.40
2023-03-18T22:22:36.716Z,0.40
2023-03-18T22:25:04.101Z,0.40
2023-03-18T22:27:31.483Z,0.40
2023-03-18T22:29:59.951Z,0.50
2023-03-18T22:32:26.343Z,0.60
2023-03-18T22:34:55.288Z,0.50
2023-03-18T22:37:23.688Z,0.40
2023-03-18T22:39:51.080Z,0.40
2023-03-18T22:42:23.710Z,0.77
2023-03-18T22:44:50.893Z,0.50
2023-03-18T22:47:22.461Z,0.60
2023-03-18T22:49:49.939Z,0.60
2023-03-18T22:52:29.052Z,0.60
2023-03-18T22:55:01.113Z,0.60
2023-03-18T22:57:28.721Z,0.57
2023-03-18T22:59:56.563Z,0.90
2023-03-18T23:02:26.467Z,0.70
2023-03-18T23:04:55.534Z,0.55
2023-03-18T23:07:28.793Z,0.70
2023-03-18T23:09:57.326Z,0.73
2023-03-18T23:12:25.757Z,0.63
2023-03-18T23:14:53.113Z,0.55
2023-03-18T23:17:22.639Z,0.80
2023-03-18T23:19:49.981Z,0.80
2023-03-18T23:22:24.850Z,0.77
2023-03-18T23:24:52.860Z,0.90
2023-03-18T23:27:21.112Z,0.60
2023-03-18T23:29:47.936Z,0.80
2023-03-18T23:32:16.134Z,0.90
2023-03-18T23:34:42.737Z,0.70
2023-03-18T23:37:10.541Z,0.70
2023-03-18T23:39:46.202Z,0.70
2023-03-18T23:42:17.607Z,0.77
2023-03-18T23:44:44.353Z,0.63
2023-03-18T23:47:12.498Z,0.85
2023-03-18T23:49:39.736Z,0.80
2023-03-18T23:52:12.809Z,0.80
2023-03-18T23:54:39.874Z,0.93
2023-03-18T23:57:09.537Z,0.80
2023-03-18T23:59:36.562Z,0.80
